Time;durP1;ratioP1;P1;durP2;ratioP2;P2;SDS_P1;SDS_P2;PMS_P1;PMS_P2;Temp;Humidity;BMP_temperature;BMP_pressure;BME280_temperature;BME280_humidity;BME280_pressure;Samples;Min_cycle;Max_cycle;Signal;HPM_P1;HPM_P2
2022/07/09 00:01:04;;;;;;;11.10;5.57;;;;;;;18.92;66.37;102722.69;5128940;27;20027;-59
2022/07/09 00:03:30;;;;;;;6.50;4.88;;;;;;;18.91;66.45;102726.34;5112140;27;20068;-59
2022/07/09 00:05:55;;;;;;;9.75;5.13;;;;;;;18.89;66.69;102723.78;5130837;27;20054;-59
2022/07/09 00:08:21;;;;;;;6.78;5.03;;;;;;;18.87;66.61;102714.06;5129713;27;20092;-59
2022/07/09 00:10:47;;;;;;;11.75;5.70;;;;;;;18.86;66.83;102723.97;5129931;27;20801;-59
2022/07/09 00:13:13;;;;;;;8.65;5.40;;;;;;;18.80;66.79;102722.56;5131718;27;20031;-59
2022/07/09 00:15:38;;;;;;;7.15;5.13;;;;;;;18.80;66.64;102724.41;5131328;27;20055;-59
2022/07/09 00:18:03;;;;;;;12.60;5.95;;;;;;;18.77;66.98;102719.22;5130529;28;20030;-59
2022/07/09 00:20:29;;;;;;;9.40;5.82;;;;;;;18.71;66.99;102709.69;5129748;27;20054;-59
2022/07/09 00:22:55;;;;;;;8.50;5.95;;;;;;;18.63;67.20;102716.56;5112264;28;20031;-59
2022/07/09 00:25:20;;;;;;;9.85;6.15;;;;;;;18.56;67.35;102713.38;5130089;28;20102;-59
2022/07/09 00:27:46;;;;;;;6.22;5.57;;;;;;;18.56;67.69;102716.97;5131295;28;20031;-59
2022/07/09 00:30:11;;;;;;;8.73;6.57;;;;;;;18.37;68.43;102725.41;5110967;28;20116;-59
2022/07/09 00:32:37;;;;;;;14.35;5.85;;;;;;;18.39;67.80;102701.06;5111270;28;20038;-59
2022/07/09 00:35:03;;;;;;;8.60;6.13;;;;;;;18.29;68.49;102718.78;5128866;28;20031;-59
2022/07/09 00:37:31;;;;;;;8.10;6.22;;;;;;;18.33;68.19;102718.50;5087577;28;20053;-59
2022/07/09 00:39:56;;;;;;;9.45;6.80;;;;;;;18.34;68.45;102714.81;5130762;28;20046;-59
2022/07/09 00:42:22;;;;;;;10.93;7.00;;;;;;;18.29;68.58;102713.41;5130174;28;20462;-59
2022/07/09 00:44:48;;;;;;;11.63;6.90;;;;;;;18.24;68.76;102712.88;5112951;28;20046;-59
2022/07/09 00:47:14;;;;;;;9.85;7.28;;;;;;;18.19;68.53;102690.75;5111839;28;20107;-59
2022/07/09 00:49:42;;;;;;;8.35;6.57;;;;;;;18.18;68.79;102711.44;5111259;28;20431;-59
2022/07/09 00:52:12;;;;;;;11.45;7.40;;;;;;;18.21;68.92;102716.63;5130258;28;20558;-59
2022/07/09 00:54:43;;;;;;;11.55;7.28;;;;;;;18.08;69.39;102716.53;5130780;28;20080;-59
2022/07/09 00:57:13;;;;;;;10.13;7.20;;;;;;;18.02;69.44;102713.38;5129495;28;20114;-59
2022/07/09 00:59:39;;;;;;;;;;;;;;;18.31;66.88;102720.41;5130192;28;20027;-59
2022/07/09 01:02:07;;;;;;;9.90;6.88;;;;;;;18.11;68.86;102719.03;5111053;28;19964;-59
2022/07/09 01:04:34;;;;;;;9.40;7.43;;;;;;;18.10;68.97;102713.75;5130321;28;20046;-59
2022/07/09 01:07:01;;;;;;;13.23;7.07;;;;;;;18.06;69.23;102709.50;5112010;28;20461;-59
2022/07/09 01:09:27;;;;;;;11.90;8.02;;;;;;;18.05;69.11;102707.78;5113030;28;20076;-59
2022/07/09 01:11:53;;;;;;;9.50;7.90;;;;;;;17.86;69.67;102709.00;5131230;28;20076;-59
2022/07/09 01:14:19;;;;;;;13.20;8.00;;;;;;;17.91;69.81;102706.88;5129693;28;20722;-59
2022/07/09 01:16:45;;;;;;;18.15;9.48;;;;;;;17.89;69.89;102700.72;5128351;27;20046;-59
2022/07/09 01:19:10;;;;;;;13.38;8.68;;;;;;;17.86;69.71;102698.22;5130364;28;20469;-59
2022/07/09 01:21:38;;;;;;;10.20;8.82;;;;;;;17.87;69.97;102699.09;5132060;27;20084;-59
2022/07/09 01:24:04;;;;;;;11.43;8.32;;;;;;;17.84;69.73;102696.59;5134546;27;20019;-59
2022/07/09 01:26:30;;;;;;;10.43;9.23;;;;;;;17.74;70.57;102690.06;5096959;27;20442;-59
2022/07/09 01:28:57;;;;;;;13.70;9.05;;;;;;;17.77;69.81;102696.09;5133054;27;20031;-59
2022/07/09 01:31:23;;;;;;;11.68;9.70;;;;;;;17.71;70.10;102689.28;5099609;27;20064;-59
2022/07/09 01:33:48;;;;;;;13.45;9.98;;;;;;;17.73;70.10;102677.53;5085755;27;20035;-59
2022/07/09 01:36:14;;;;;;;11.10;9.98;;;;;;;17.70;70.22;102679.44;5114499;27;20095;-59
2022/07/09 01:38:40;;;;;;;10.55;9.48;;;;;;;17.67;70.24;102671.56;5133469;27;20493;-59
2022/07/09 01:41:06;;;;;;;14.75;10.15;;;;;;;17.65;70.44;102668.13;5114444;27;20047;-59
2022/07/09 01:43:33;;;;;;;12.18;10.32;;;;;;;17.59;70.46;102665.84;5134428;27;20015;-59
2022/07/09 01:46:00;;;;;;;11.63;9.98;;;;;;;17.55;70.56;102671.50;5134040;27;20255;-59
2022/07/09 01:48:26;;;;;;;12.80;9.50;;;;;;;17.54;70.48;102667.94;5133351;27;20051;-59
2022/07/09 01:50:53;;;;;;;14.43;10.45;;;;;;;17.51;70.56;102664.59;5133416;27;20026;-59
2022/07/09 01:53:20;;;;;;;12.15;10.77;;;;;;;17.46;70.86;102667.56;5133199;27;20163;-59
2022/07/09 01:55:48;;;;;;;11.95;10.68;;;;;;;17.23;71.32;102661.78;5113335;27;20031;-59
2022/07/09 01:58:14;;;;;;;12.48;10.45;;;;;;;17.36;70.85;102672.66;5098129;27;20106;-59
2022/07/09 02:00:40;;;;;;;13.77;10.85;;;;;;;17.30;71.33;102677.56;5097093;27;20569;-59
2022/07/09 02:03:05;;;;;;;13.65;10.30;;;;;;;17.24;71.37;102662.69;5132436;27;20038;-59
2022/07/09 02:05:34;;;;;;;13.25;10.80;;;;;;;17.30;71.41;102666.81;5097162;27;20023;-59
2022/07/09 02:07:59;;;;;;;12.02;10.45;;;;;;;17.27;71.08;102665.19;5130269;27;20112;-59
2022/07/09 02:10:24;;;;;;;13.30;9.82;;;;;;;17.20;71.46;102667.34;5115621;27;20023;-59
2022/07/09 02:12:50;;;;;;;11.27;10.15;;;;;;;17.23;71.25;102663.63;5133746;27;20058;-59
2022/07/09 02:15:16;;;;;;;11.73;10.20;;;;;;;17.15;71.51;102652.50;5133925;27;20035;-59
2022/07/09 02:17:42;;;;;;;10.75;9.65;;;;;;;17.16;71.41;102654.22;5096924;27;20363;-59
2022/07/09 02:20:11;;;;;;;13.93;10.77;;;;;;;17.14;71.43;102650.75;5133662;27;20026;-59
2022/07/09 02:22:41;;;;;;;12.35;11.07;;;;;;;17.00;71.78;102654.28;5131523;27;20027;-59
2022/07/09 02:25:09;;;;;;;12.50;10.18;;;;;;;17.02;71.70;102657.75;5115822;27;20050;-59
2022/07/09 02:27:34;;;;;;;12.95;10.57;;;;;;;16.99;71.63;102657.94;5132969;27;20031;-59
2022/07/09 02:30:00;;;;;;;12.30;10.45;;;;;;;16.98;71.57;102653.53;5130638;27;20046;-59
2022/07/09 02:32:28;;;;;;;11.50;9.82;;;;;;;16.91;71.48;102647.69;5132113;27;20031;-59
2022/07/09 02:34:54;;;;;;;11.95;10.52;;;;;;;16.92;71.49;102653.91;5115517;27;20050;-59
2022/07/09 02:37:20;;;;;;;11.90;10.70;;;;;;;16.88;71.58;102649.66;5097244;27;20035;-59
2022/07/09 02:39:46;;;;;;;15.35;12.10;;;;;;;16.86;71.62;102641.72;5132415;27;20050;-59
2022/07/09 02:42:11;;;;;;;13.43;12.13;;;;;;;16.86;71.80;102640.84;5114630;27;20071;-59
2022/07/09 02:44:36;;;;;;;12.57;11.27;;;;;;;16.89;71.77;102659.47;5114701;27;20031;-59
2022/07/09 02:47:02;;;;;;;12.80;11.13;;;;;;;16.91;71.42;102654.84;5095755;27;20051;-59
2022/07/09 02:49:29;;;;;;;13.23;10.95;;;;;;;16.79;71.76;102646.59;5112897;27;20027;-59
2022/07/09 02:51:59;;;;;;;12.32;10.95;;;;;;;16.81;71.84;102646.50;5097422;27;20439;-59
2022/07/09 02:54:24;;;;;;;14.60;13.07;;;;;;;16.72;72.40;102649.69;5133323;27;20386;-59
2022/07/09 02:56:50;;;;;;;14.45;12.15;;;;;;;16.70;72.06;102640.84;5096307;27;20035;-59
2022/07/09 02:59:15;;;;;;;14.23;12.57;;;;;;;16.69;72.32;102640.00;5132186;27;20029;-59
2022/07/09 03:01:41;;;;;;;13.75;11.73;;;;;;;16.72;72.23;102639.81;5129602;27;20111;-59
2022/07/09 03:04:06;;;;;;;14.25;12.85;;;;;;;16.67;72.21;102638.34;5097146;27;20027;-59
2022/07/09 03:06:32;;;;;;;16.92;14.73;;;;;;;16.49;73.48;102633.13;5130002;27;20443;-59
2022/07/09 03:08:58;;;;;;;15.68;14.18;;;;;;;16.52;73.22;102637.47;5132782;27;20628;-59
2022/07/09 03:11:24;;;;;;;15.10;13.60;;;;;;;16.55;72.95;102634.59;5132262;27;20533;-59
2022/07/09 03:13:50;;;;;;;15.40;13.27;;;;;;;16.55;72.76;102634.59;5097401;27;20110;-59
2022/07/09 03:16:18;;;;;;;18.50;15.10;;;;;;;16.52;73.05;102637.47;5095945;27;20092;-59
2022/07/09 03:18:44;;;;;;;20.58;15.70;;;;;;;16.43;73.26;102633.50;5132627;27;20492;-59
2022/07/09 03:21:12;;;;;;;17.17;15.00;;;;;;;16.33;73.86;102633.19;5110602;27;20058;-59
2022/07/09 03:23:42;;;;;;;18.05;16.23;;;;;;;16.32;73.70;102639.53;5114180;27;20031;-59
2022/07/09 03:26:08;;;;;;;21.83;19.00;;;;;;;16.40;74.42;102630.13;5132385;27;20434;-59
2022/07/09 03:28:34;;;;;;;22.55;18.20;;;;;;;16.31;74.37;102637.78;5112005;27;20051;-59
2022/07/09 03:31:00;;;;;;;20.05;18.05;;;;;;;16.19;74.95;102641.19;5130867;27;20436;-59
2022/07/09 03:33:26;;;;;;;21.75;19.10;;;;;;;16.25;75.18;102631.91;5129913;27;20027;-59
2022/07/09 03:35:54;;;;;;;21.40;19.30;;;;;;;16.22;75.00;102634.75;5131736;27;20474;-59
2022/07/09 03:38:19;;;;;;;21.83;19.35;;;;;;;16.20;75.11;102636.66;5113655;27;20386;-59
2022/07/09 03:40:45;;;;;;;24.02;19.75;;;;;;;16.22;75.21;102634.75;5113670;27;20019;-59
2022/07/09 03:43:11;;;;;;;22.05;19.60;;;;;;;16.15;75.38;102636.06;5113060;27;20031;-59
2022/07/09 03:45:37;;;;;;;24.02;20.10;;;;;;;16.17;75.35;102632.34;5130522;27;20023;-59
2022/07/09 03:48:06;;;;;;;24.55;20.23;;;;;;;16.17;75.43;102644.91;5131649;27;20042;-59
2022/07/09 03:50:31;;;;;;;24.48;21.00;;;;;;;16.12;75.78;102646.03;5113419;27;20027;-59
2022/07/09 03:52:57;;;;;;;26.23;21.83;;;;;;;16.20;75.91;102637.53;5112728;27;20122;-59
2022/07/09 03:55:25;;;;;;;26.25;22.15;;;;;;;16.16;75.98;102643.19;5112618;27;20546;-59
2022/07/09 03:57:51;;;;;;;25.75;21.67;;;;;;;16.13;76.13;102641.53;5131183;27;20470;-59
2022/07/09 04:00:16;;;;;;;26.80;22.40;;;;;;;16.10;76.64;102642.56;5128760;27;20076;-59
2022/07/09 04:02:42;;;;;;;27.35;24.15;;;;;;;16.17;76.98;102626.09;5112914;27;20031;-59
2022/07/09 04:05:08;;;;;;;27.08;24.02;;;;;;;16.15;76.85;102636.06;5094226;27;20026;-59
2022/07/09 04:07:34;;;;;;;24.95;22.42;;;;;;;16.21;76.89;102636.59;5111551;27;20027;-59
2022/07/09 04:09:59;;;;;;;27.95;22.88;;;;;;;16.32;76.58;102635.94;5131474;27;20038;-59
2022/07/09 04:12:25;;;;;;;25.63;22.90;;;;;;;16.29;76.93;102633.44;5112277;27;20059;-59
2022/07/09 04:14:53;;;;;;;29.20;23.60;;;;;;;16.29;77.14;102630.75;5130791;27;20038;-59
2022/07/09 04:17:18;;;;;;;32.28;24.90;;;;;;;16.25;77.07;102630.06;5131504;27;20034;-59
2022/07/09 04:19:44;;;;;;;28.98;25.15;;;;;;;16.20;77.23;102632.16;5110726;28;20027;-59
2022/07/09 04:22:09;;;;;;;29.60;26.05;;;;;;;16.30;77.25;102633.38;5112686;28;20525;-59
2022/07/09 04:24:34;;;;;;;28.40;24.13;;;;;;;16.38;77.11;102632.91;5131268;28;20107;-59
2022/07/09 04:27:02;;;;;;;31.80;25.92;;;;;;;16.17;77.63;102618.06;5111353;28;20394;-59
2022/07/09 04:29:28;;;;;;;32.53;26.38;;;;;;;16.23;77.63;102617.69;5109505;28;20034;-59
2022/07/09 04:31:54;;;;;;;30.95;26.90;;;;;;;16.24;77.63;102622.13;5131349;27;20023;-59
2022/07/09 04:34:20;;;;;;;32.58;26.77;;;;;;;16.23;77.91;102617.69;5129707;28;20040;-59
2022/07/09 04:36:46;;;;;;;37.28;28.90;;;;;;;16.22;78.39;102614.16;5108637;28;20397;-59
2022/07/09 04:39:11;;;;;;;36.38;29.75;;;;;;;16.31;77.86;102618.97;5126783;28;20029;-59
2022/07/09 04:41:37;;;;;;;31.90;28.20;;;;;;;16.37;78.39;102620.44;5110118;28;20034;-59
2022/07/09 04:44:04;;;;;;;33.20;29.02;;;;;;;16.46;78.10;102621.72;5111171;28;20114;-59
2022/07/09 04:46:32;;;;;;;35.03;29.65;;;;;;;16.44;78.49;102620.94;5094306;28;20118;-59
2022/07/09 04:48:57;;;;;;;33.55;30.05;;;;;;;16.47;78.41;102620.75;5109535;28;20044;-59
2022/07/09 04:51:23;;;;;;;34.20;30.50;;;;;;;16.47;78.88;102626.13;5110478;28;20034;-59
2022/07/09 04:53:48;;;;;;;37.30;32.00;;;;;;;16.55;79.00;102616.63;5108769;28;20509;-59
2022/07/09 04:56:14;;;;;;;41.50;34.45;;;;;;;16.56;79.95;102625.59;5110200;28;20110;-59
2022/07/09 04:58:51;;;;;;;38.22;34.03;;;;;;;16.63;79.35;102623.38;5094595;28;20042;-59
2022/07/09 05:01:17;;;;;;;37.75;33.00;;;;;;;16.66;79.37;102616.00;5111992;28;20111;-62
2022/07/09 05:03:44;;;;;;;39.05;34.28;;;;;;;16.69;79.66;102617.66;5113979;28;20019;-59
2022/07/09 05:06:10;;;;;;;40.55;33.72;;;;;;;16.71;79.96;102613.91;5111081;28;20032;-59
2022/07/09 05:08:35;;;;;;;45.83;36.30;;;;;;;16.84;79.37;102610.50;5113236;28;20386;-59
2022/07/09 05:11:00;;;;;;;40.13;35.40;;;;;;;16.85;79.57;102610.41;5095648;28;20080;-59
2022/07/09 05:13:26;;;;;;;39.75;35.55;;;;;;;16.90;79.43;102602.06;5096397;28;20031;-59
2022/07/09 05:15:51;;;;;;;40.28;34.75;;;;;;;16.88;79.33;102612.88;5114259;28;20122;-59
2022/07/09 05:18:17;;;;;;;39.95;34.88;;;;;;;16.94;79.13;102614.34;5096531;28;20115;-59
2022/07/09 05:20:45;;;;;;;47.42;34.60;;;;;;;16.95;79.58;102611.56;5113411;28;20547;-59
2022/07/09 05:23:11;;;;;;;40.30;35.13;;;;;;;16.94;80.04;102617.03;5112887;28;20046;-59
2022/07/09 05:25:37;;;;;;;41.05;36.40;;;;;;;16.96;79.45;102610.59;5095870;28;20523;-59
2022/07/09 05:28:02;;;;;;;41.38;34.15;;;;;;;17.00;79.93;102608.59;5112688;28;20036;-59
2022/07/09 05:30:36;;;;;;;45.40;35.45;;;;;;;16.95;79.78;102608.88;5091725;28;20096;-59
2022/07/09 05:33:05;;;;;;;47.35;35.10;;;;;;;17.05;79.70;102609.16;5113276;28;20036;-59
2022/07/09 05:35:33;;;;;;;39.88;35.00;;;;;;;17.21;79.56;102617.16;5096304;28;20548;-59
2022/07/09 05:37:59;;;;;;;40.25;33.60;;;;;;;17.14;79.91;102603.22;5112517;28;20030;-59
2022/07/09 05:40:25;;;;;;;38.85;34.33;;;;;;;17.27;79.86;102613.22;5095785;28;20419;-59
2022/07/09 05:42:50;;;;;;;40.30;34.70;;;;;;;17.23;79.70;102610.69;5113015;28;20035;-59
2022/07/09 05:45:16;;;;;;;42.65;34.63;;;;;;;17.24;79.65;102611.59;5112504;28;20023;-59
2022/07/09 05:47:42;;;;;;;41.72;34.60;;;;;;;16.93;80.60;102567.78;5121821;27;20453;-59
2022/07/09 05:50:09;;;;;;;39.17;35.22;;;;;;;17.21;80.34;102617.16;5115060;27;20072;-59
2022/07/09 05:52:34;;;;;;;36.00;32.15;;;;;;;17.24;80.22;102600.81;5114954;27;20603;-59
2022/07/09 05:55:00;;;;;;;38.97;33.63;;;;;;;17.35;80.26;102608.19;5115841;27;20114;-59
2022/07/09 05:57:26;;;;;;;37.97;32.30;;;;;;;17.43;80.21;102597.81;5134435;27;20098;-59
2022/07/09 05:59:51;;;;;;;37.58;32.00;;;;;;;17.41;79.99;102599.72;5116237;27;20090;-59
2022/07/09 06:02:18;;;;;;;36.30;32.50;;;;;;;17.37;79.93;102599.06;5114080;27;20035;-59
2022/07/09 06:04:44;;;;;;;35.83;31.58;;;;;;;17.46;79.69;102611.06;5115303;27;20058;-59
2022/07/09 06:07:09;;;;;;;37.67;31.13;;;;;;;17.42;80.40;102601.47;5114608;28;20031;-59
2022/07/09 06:09:35;;;;;;;37.75;31.63;;;;;;;17.51;80.02;102605.41;5133263;27;20379;-59
2022/07/09 06:12:01;;;;;;;35.63;31.15;;;;;;;17.57;80.04;102602.31;5098455;27;20027;-59
2022/07/09 06:14:27;;;;;;;34.35;30.65;;;;;;;17.71;79.94;102607.69;5134004;27;20027;-59
2022/07/09 06:16:55;;;;;;;34.63;30.95;;;;;;;17.86;79.37;102619.31;5133559;27;20023;-59
2022/07/09 06:19:20;;;;;;;39.38;31.75;;;;;;;17.98;79.51;102620.31;5133294;27;20034;-59
2022/07/09 06:21:46;;;;;;;32.97;29.45;;;;;;;18.04;79.33;102622.59;5133107;27;20027;-59
2022/07/09 06:24:14;;;;;;;36.22;31.17;;;;;;;18.15;79.54;102612.00;5098443;27;20045;-59
2022/07/09 06:26:40;;;;;;;34.65;30.77;;;;;;;18.14;78.84;102603.00;5131529;27;20038;-59
2022/07/09 06:29:05;;;;;;;30.20;26.80;;;;;;;18.18;78.13;102609.09;5114987;27;20102;-59
2022/07/09 06:31:34;;;;;;;33.90;28.85;;;;;;;18.29;78.24;102613.72;5133710;27;20018;-59
2022/07/09 06:34:00;;;;;;;34.08;30.10;;;;;;;18.37;77.96;102617.63;5115399;27;20114;-59
2022/07/09 06:36:27;;;;;;;31.65;28.35;;;;;;;18.34;78.47;102615.16;5133272;27;20029;-59
2022/07/09 06:41:40;;;;;;;30.38;26.40;;;;;;;18.50;78.66;102619.47;5132866;27;20076;-59
2022/07/09 06:44:05;;;;;;;33.92;28.05;;;;;;;18.54;79.47;102616.50;5133579;27;20027;-59
2022/07/09 06:46:30;;;;;;;36.00;27.90;;;;;;;18.63;78.92;102619.53;5114046;27;20393;-59
2022/07/09 06:48:56;;;;;;;32.30;28.80;;;;;;;18.65;78.69;102622.97;5114702;27;20047;-59
2022/07/09 06:51:24;;;;;;;34.92;29.95;;;;;;;18.68;78.34;102622.75;5132148;27;20049;-59
2022/07/09 06:53:50;;;;;;;36.20;29.27;;;;;;;18.70;78.73;102624.38;5115382;27;20023;-59
2022/07/09 06:56:17;;;;;;;36.58;28.92;;;;;;;18.75;78.48;102614.16;5114974;27;20370;-59
2022/07/09 06:58:43;;;;;;;36.30;30.60;;;;;;;18.77;78.11;102619.47;5133275;27;20027;-59
2022/07/09 07:01:08;;;;;;;35.08;29.48;;;;;;;18.82;78.09;102614.59;5132758;27;20015;-59
2022/07/09 07:03:35;;;;;;;33.65;28.38;;;;;;;18.93;78.17;102609.31;5114319;27;20363;-59
2022/07/09 07:06:00;;;;;;;38.00;29.88;;;;;;;19.12;77.08;102611.59;5132694;27;20023;-59
2022/07/09 07:08:25;;;;;;;35.90;30.15;;;;;;;19.22;77.32;102619.88;5114759;27;20405;-59
2022/07/09 07:10:51;;;;;;;30.63;27.33;;;;;;;19.33;76.35;102629.91;5114059;27;20050;-59
2022/07/09 07:13:16;;;;;;;37.05;29.67;;;;;;;19.40;76.41;102626.66;5111520;27;20401;-59
2022/07/09 07:15:44;;;;;;;32.53;28.05;;;;;;;19.48;76.49;102618.00;5114011;27;20039;-59
2022/07/09 07:18:14;;;;;;;31.08;27.73;;;;;;;19.42;75.60;102629.25;5133004;27;20144;-59
2022/07/09 07:20:40;;;;;;;29.02;25.92;;;;;;;19.46;75.95;102630.75;5114172;27;20055;-59
2022/07/09 07:23:06;;;;;;;29.20;25.92;;;;;;;19.53;75.58;102621.25;5132097;27;20054;-59
2022/07/09 07:25:32;;;;;;;26.23;22.02;;;;;;;19.66;74.21;102608.59;5111128;27;20027;-59
2022/07/09 07:27:58;;;;;;;27.10;22.65;;;;;;;19.86;74.04;102622.47;5114699;27;20023;-59
2022/07/09 07:30:24;;;;;;;26.55;23.02;;;;;;;20.03;73.46;102618.50;5132435;27;20071;-59
2022/07/09 07:32:49;;;;;;;24.75;21.77;;;;;;;20.15;72.49;102614.91;5096800;27;20031;-59
2022/07/09 07:35:15;;;;;;;25.50;22.20;;;;;;;20.30;72.09;102612.88;5114268;27;20121;-59
2022/07/09 07:37:41;;;;;;;24.33;21.73;;;;;;;20.46;72.32;102616.09;5131759;27;20015;-59
2022/07/09 07:40:09;;;;;;;25.30;21.83;;;;;;;20.57;71.05;102623.44;5114193;27;20023;-59
2022/07/09 07:42:34;;;;;;;23.73;21.23;;;;;;;20.65;71.46;102615.59;5132006;27;20023;-59
2022/07/09 07:45:00;;;;;;;25.17;20.17;;;;;;;20.68;69.48;102619.88;5079363;27;20037;-59
2022/07/09 07:47:25;;;;;;;24.73;20.42;;;;;;;20.74;70.33;102622.13;5131289;27;20096;-59
2022/07/09 07:49:51;;;;;;;26.50;20.25;;;;;;;20.67;70.24;102619.00;5113762;27;20058;-59
2022/07/09 07:52:17;;;;;;;22.98;19.20;;;;;;;20.65;69.74;102629.09;5112652;27;20027;-59
2022/07/09 07:54:45;;;;;;;26.50;22.00;;;;;;;20.65;70.23;102629.09;5079424;27;20039;-59
2022/07/09 07:57:11;;;;;;;27.80;22.65;;;;;;;20.65;70.59;102634.50;5132011;27;20046;-59
2022/07/09 07:59:36;;;;;;;26.33;22.40;;;;;;;20.70;69.72;102626.88;5113707;27;20474;-59
2022/07/09 08:02:02;;;;;;;28.15;22.58;;;;;;;20.84;70.60;102623.97;5113798;27;20037;-59
2022/07/09 08:04:27;;;;;;;27.65;23.25;;;;;;;21.06;70.38;102619.56;5096449;27;20034;-59
2022/07/09 08:06:53;;;;;;;28.58;23.35;;;;;;;21.09;69.38;102612.09;5131055;27;20025;-59
2022/07/09 08:09:18;;;;;;;27.50;23.45;;;;;;;21.12;68.38;102623.63;5113652;28;20034;-59
2022/07/09 08:11:44;;;;;;;27.33;22.35;;;;;;;21.05;68.32;102620.56;5096316;28;20068;-59
2022/07/09 08:14:12;;;;;;;25.55;21.98;;;;;;;21.06;68.71;102617.75;5129160;27;20023;-59
2022/07/09 08:16:38;;;;;;;26.25;21.77;;;;;;;21.06;68.46;102609.63;5132021;27;20426;-59
2022/07/09 08:19:03;;;;;;;29.50;23.10;;;;;;;21.15;68.39;102608.03;5113357;27;20110;-59
2022/07/09 08:21:28;;;;;;;26.73;22.88;;;;;;;21.43;67.62;102606.69;5112444;27;20409;-59
2022/07/09 08:23:55;;;;;;;26.85;23.05;;;;;;;21.50;67.61;102597.09;5128273;28;20019;-59
2022/07/09 08:26:22;;;;;;;26.45;22.55;;;;;;;21.48;67.61;102595.50;5111897;28;20474;-59
2022/07/09 08:28:48;;;;;;;27.77;22.52;;;;;;;21.57;67.04;102592.03;5128826;28;20467;-59
2022/07/09 08:31:18;;;;;;;25.38;21.70;;;;;;;21.53;66.48;102594.13;5130742;27;20110;-59
2022/07/09 08:33:44;;;;;;;28.67;22.73;;;;;;;21.48;65.82;102593.63;5135653;27;20046;-59
2022/07/09 08:36:09;;;;;;;22.35;19.83;;;;;;;21.43;66.20;102593.13;5135237;27;20106;-59
2022/07/09 08:38:35;;;;;;;25.23;20.50;;;;;;;21.36;65.85;102586.53;5135979;27;20419;-59
2022/07/09 08:41:04;;;;;;;22.58;19.73;;;;;;;21.27;66.05;102562.88;5136049;27;20465;-59
2022/07/09 08:43:33;;;;;;;22.58;18.83;;;;;;;21.67;66.00;102574.00;5117096;27;20493;-59
2022/07/09 08:45:58;;;;;;;22.45;20.02;;;;;;;21.84;65.41;102577.19;5115256;27;20506;-59
2022/07/09 08:48:27;;;;;;;21.90;19.35;;;;;;;21.98;64.22;102574.19;5135205;27;20039;-59
2022/07/09 08:50:52;;;;;;;22.25;17.98;;;;;;;22.04;63.57;102576.38;5116547;27;20482;-59
2022/07/09 08:53:19;;;;;;;21.85;19.45;;;;;;;22.05;64.05;102577.22;5116170;27;20087;-59
2022/07/09 08:55:46;;;;;;;18.48;16.70;;;;;;;22.00;62.80;102562.22;5134346;27;20023;-59
2022/07/09 08:58:14;;;;;;;19.08;15.68;;;;;;;22.15;62.29;102578.19;5134854;27;20080;-59
2022/07/09 09:00:40;;;;;;;;;;;;;;;22.30;63.39;102582.31;5115280;27;20015;-59
2022/07/09 09:03:09;;;;;;;19.92;15.75;;;;;;;22.20;62.86;102575.94;5116367;27;19930;-59
2022/07/09 09:05:35;;;;;;;;;;;;;;;22.43;63.34;102573.97;5127660;27;20053;-59
2022/07/09 09:08:16;;;;;;;19.27;14.77;;;;;;;22.51;63.17;102574.19;5131750;27;20369;-59
2022/07/09 09:10:45;;;;;;;17.25;15.45;;;;;;;22.56;61.55;102568.34;5133493;27;20490;-59
2022/07/09 09:13:14;;;;;;;16.75;13.18;;;;;;;22.62;62.46;102562.41;5134337;27;20034;-59
2022/07/09 09:15:41;;;;;;;17.50;14.60;;;;;;;22.48;60.57;102569.03;5134058;27;20023;-59
2022/07/09 09:18:06;;;;;;;18.08;13.63;;;;;;;22.41;61.29;102574.13;5098759;27;20027;-59
2022/07/09 09:20:31;;;;;;;16.00;14.38;;;;;;;22.31;61.89;102577.75;5115847;27;20382;-59
2022/07/09 09:23:02;;;;;;;20.60;15.15;;;;;;;22.19;62.09;102572.38;5115638;27;20058;-59
2022/07/09 09:25:28;;;;;;;18.35;14.82;;;;;;;22.25;63.24;102565.59;5134284;27;20027;-59
2022/07/09 09:27:55;;;;;;;15.50;13.90;;;;;;;22.36;63.17;102561.97;5131587;27;20033;-59
2022/07/09 09:30:27;;;;;;;23.38;17.80;;;;;;;22.27;62.18;102571.75;5115824;27;20047;-59
2022/07/09 09:33:00;;;;;;;20.85;16.98;;;;;;;22.18;63.54;102562.53;5132553;27;20083;-59
2022/07/09 09:35:28;;;;;;;22.10;17.80;;;;;;;22.10;63.19;102561.44;5134432;27;20031;-59
2022/07/09 09:37:55;;;;;;;21.88;16.45;;;;;;;22.10;64.15;102570.44;5133739;27;20062;-59
2022/07/09 09:40:20;;;;;;;18.98;16.77;;;;;;;22.02;63.46;102558.50;5134126;27;20019;-59
2022/07/09 09:42:48;;;;;;;19.95;15.68;;;;;;;22.17;64.31;102558.09;5133928;27;20102;-59
2022/07/09 09:45:16;;;;;;;19.15;16.58;;;;;;;22.33;62.46;102559.50;5131832;27;20023;-59
2022/07/09 09:47:48;;;;;;;18.75;16.60;;;;;;;22.53;62.70;102557.75;5113496;27;20047;-59
2022/07/09 09:50:24;;;;;;;19.50;16.90;;;;;;;22.48;62.71;102558.19;5132695;27;20047;-59
2022/07/09 09:52:52;;;;;;;22.60;16.80;;;;;;;22.31;63.81;102565.06;5127201;27;20022;-59
2022/07/09 09:55:19;;;;;;;26.25;16.90;;;;;;;22.20;63.29;102560.53;5129043;27;20492;-59
2022/07/09 09:57:45;;;;;;;19.48;16.10;;;;;;;22.09;64.28;102557.88;5096433;27;20046;-59
2022/07/09 10:00:12;;;;;;;19.80;17.45;;;;;;;21.98;64.44;102556.06;5131277;27;20372;-59
2022/07/09 10:02:42;;;;;;;18.58;16.63;;;;;;;21.84;64.70;102563.63;5127235;27;20023;-59
2022/07/09 10:05:11;;;;;;;20.75;17.45;;;;;;;21.73;66.28;102559.09;5134420;27;20049;-59
2022/07/09 10:07:38;;;;;;;;;;;;;;;21.85;65.18;102568.06;5116392;27;20058;-59
2022/07/09 10:10:06;;;;;;;22.30;18.73;;;;;;;21.46;68.22;102562.25;5127352;27;19931;-59
2022/07/09 10:12:38;;;;;;;17.37;15.33;;;;;;;21.42;67.23;102568.91;5121899;27;20569;-62
2022/07/09 10:15:26;;;;;;;19.15;14.02;;;;;;;21.49;67.34;102565.56;5128109;27;20030;-62
2022/07/09 10:17:53;;;;;;;21.00;13.07;;;;;;;21.52;65.92;102557.19;5133103;27;20034;-62
2022/07/09 10:20:33;;;;;;;14.55;11.40;;;;;;;21.88;65.38;102567.78;5133205;27;20536;-62
2022/07/09 10:22:59;;;;;;;19.65;11.20;;;;;;;22.15;64.58;102559.22;5131467;27;20497;-62
2022/07/09 10:25:29;;;;;;;14.18;10.85;;;;;;;22.35;63.81;102549.38;5133608;27;20031;-62
2022/07/09 10:27:57;;;;;;;17.83;10.40;;;;;;;22.55;62.97;102548.50;5133049;27;20478;-62
2022/07/09 10:30:26;;;;;;;12.25;9.45;;;;;;;22.51;63.14;102554.34;5131650;27;20117;-62
2022/07/09 10:33:06;;;;;;;11.82;8.13;;;;;;;22.47;63.92;102552.88;5134001;27;20031;-62
2022/07/09 10:35:49;;;;;;;10.38;6.80;;;;;;;22.42;62.76;102573.13;5133852;27;20031;-62
2022/07/09 10:38:15;;;;;;;8.73;6.50;;;;;;;22.29;63.04;102567.03;5114705;27;20359;-62
2022/07/09 10:40:44;;;;;;;9.18;6.45;;;;;;;22.30;64.35;102559.78;5133624;27;20124;-62
2022/07/09 10:43:10;;;;;;;9.65;6.70;;;;;;;22.37;63.21;102552.81;5133505;27;20033;-62
2022/07/09 10:45:37;;;;;;;8.93;6.90;;;;;;;22.19;62.95;102542.56;5114851;27;20102;-62
2022/07/09 10:48:07;;;;;;;11.00;6.65;;;;;;;22.53;63.67;102555.06;5133023;27;20101;-62
2022/07/09 10:50:37;;;;;;;7.03;5.68;;;;;;;22.92;62.12;102548.00;5132579;27;20457;-62
2022/07/09 10:53:06;;;;;;;6.95;6.05;;;;;;;23.37;62.03;102553.03;5132724;27;20027;-62
2022/07/09 10:55:31;;;;;;;8.52;4.57;;;;;;;23.61;59.67;102552.66;5132697;27;20027;-62
2022/07/09 10:57:57;;;;;;;8.70;4.93;;;;;;;23.77;57.40;102552.16;5114881;27;20035;-62
2022/07/09 11:00:25;;;;;;;6.13;3.22;;;;;;;24.11;57.55;102547.13;5132712;27;20068;-62
2022/07/09 11:03:05;;;;;;;8.25;3.40;;;;;;;24.15;56.41;102548.56;5132571;27;20371;-62
2022/07/09 11:05:32;;;;;;;7.00;3.58;;;;;;;24.22;55.22;102557.84;5114755;27;20031;-62
2022/07/09 11:07:59;;;;;;;5.68;3.47;;;;;;;24.32;56.21;102560.56;5132730;27;20031;-62
2022/07/09 11:10:28;;;;;;;8.02;3.20;;;;;;;24.19;55.44;102550.00;5133292;27;20023;-62
2022/07/09 11:12:55;;;;;;;;;;;;;;;24.37;56.18;102552.81;5133067;27;20041;-62
2022/07/09 11:15:23;;;;;;;5.05;3.30;;;;;;;24.25;55.24;102560.28;5132615;27;19963;-62